Stevens Village, AK (99774)

2:46 PM AKDT on March 29, 2017 (GMT -0800)
Fairbanks International | | Change Station
Active Advisory: Winter Weather Advisory

Elev 433 ft 64.81 °N, 147.86 °W | Updated 53 minutes ago

Overcast
Overcast
17 °F
Feels Like 17 °F
N
0
Wind Variable Wind from North

Today
High -- | Low -- °F
--% Chance of Precip.
Yesterday
High -- | Low -- °F
Precip. -- in
Pressure 29.69 in
Visibility 10.0 miles
Clouds Few 5000 ft
Mostly Cloudy 13000 ft
Mostly Cloudy 25000 ft
Dew Point 7 °F
Humidity 65%
Rainfall 0.00 in
Snow Depth Not available.
7:20 AM 8:43 PM
Waxing Crescent, 5% visible
METAR PAFA 292153Z 00000KT 10SM FEW050 BKN130 BKN250 M08/M14 A2966 RMK AO2 SLP054 T10831139
Pressure 29.69 in
Visibility 10.0 miles
Clouds Few 5000 ft
Mostly Cloudy 13000 ft
Mostly Cloudy 25000 ft
Dew Point 7 °F
Humidity 65%
Rainfall 0.00 in
Snow Depth Not available.
7:20 AM 8:43 PM
Waxing Crescent, 5% visible
METAR PAFA 292153Z 00000KT 10SM FEW050 BKN130 BKN250 M08/M14 A2966 RMK AO2 SLP054 T10831139

Get Your Daily Forecast Email!

Thanks for signing up!

Be on the lookout for a verification email in your inbox.

You'll start receiving severe weather alerts in your inbox..

×

10-Day Weather Forecast

Almanac

Astronomy

Mar. 29, 2017 Rise Set
Actual Time
Civil Twilight
Nautical Twilight
Astronomical Twilight
Moon
Length of Visible Light
Length of Day
Tomorrow will be .
, % of the Moon is Illuminated

Today's Extremes

State Highs State Lows

Community

WunderPhotos

Upload Photos

1,962,540 photos uploaded!

WunderBlog® & News

Nearby

Air Quality

  Air Quality AQ Index Pollutant
Not available.

Snow Depth

Station Depth Elevation

Earthquake Activity

City Distance Mag. Time & Date
Minimum magnitude displayed is 2.5.

Earthquake Activity

City Distance Mag. Time & Date
Minimum magnitude displayed is 2.5.

Coastal Water Temperatures

Place Temperature

Stations

Nearby Weather Stations

Station Location Temp. Windchill Dew Point Humidity Wind Precip. Elev Updated Type
                   

Watches & Warnings

Winter Weather Advisory
Issued: 1:12 PM AKDT Mar. 29, 2017 – National Weather Service

... Winter Weather Advisory remains in effect until 4 PM akdt
Thursday...

* location... from the Dalton Highway west.

* Snow... with 3 to 5 inches accumulation.

* Timing... snow will increase this evening and continue through
Thursday. The heaviest snow is expected tonight and early
Thursday morning.

* Impacts... visibility may be greatly reduced. Travel and
outdoor activities will be difficult.

Precautionary/preparedness actions...

A Winter Weather Advisory means that one or more winter weather
hazards are expected to cause travel difficulties.